Time;durP1;ratioP1;P1;durP2;ratioP2;P2;SDS_P1;SDS_P2;PMS_P1;PMS_P2;Temp;Humidity;BMP_temperature;BMP_pressure;BME280_temperature;BME280_humidity;BME280_pressure;Samples;Min_cycle;Max_cycle;Signal;HPM_P1;HPM_P2
2022/04/24 00:01:17;;;;;;;;;;;;;;;-143.90;90.99;55180.72;2096675;28;20068;-63
2022/04/24 00:02:38;;;;;;;;;;;;;;;-143.90;91.57;55158.88;2097628;28;20009;-64
2022/04/24 00:03:59;;;;;;;;;;;;;;;-143.90;92.07;55137.03;2097486;28;20439;-64
2022/04/24 00:05:20;;;;;;;;;;;;;;;-143.90;92.90;55141.00;2096732;28;20792;-62
2022/04/24 00:06:41;;;;;;;;;;;;;;;-143.90;93.32;55121.16;2096620;28;19920;-63
2022/04/24 00:08:02;;;;;;;;;;;;;;;-143.90;93.65;55143.00;2097277;28;20011;-61
2022/04/24 00:09:23;;;;;;;;;;;;;;;-143.90;94.42;55156.88;2096819;28;19947;-63
2022/04/24 00:10:43;;;;;;;;;;;;;;;-143.90;95.19;55150.94;2095773;28;19924;-64
2022/04/24 00:12:05;;;;;;;;;;;;;;;-143.90;95.98;55135.03;2097992;28;20854;-64
2022/04/24 00:13:26;;;;;;;;;;;;;;;-143.90;96.69;55194.63;2095876;28;19931;-63
2022/04/24 00:14:46;;;;;;;;;;;;;;;-143.90;98.47;55162.84;2097758;28;19924;-64
2022/04/24 00:16:08;;;;;;;;;;;;;;;-143.90;98.93;55127.09;2097316;28;19919;-64
2022/04/24 00:17:28;;;;;;;;;;;;;;;-143.90;100.00;55139.03;2095823;28;19927;-63
2022/04/24 00:18:49;;;;;;;;;;;;;;;-143.90;100.00;55154.91;2095331;28;20037;-63
2022/04/24 00:20:10;;;;;;;;;;;;;;;-143.90;100.00;55214.47;2097563;28;19927;-63
2022/04/24 00:21:31;;;;;;;;;;;;;;;-143.90;100.00;55152.91;2096223;28;19978;-64
2022/04/24 00:22:52;;;;;;;;;;;;;;;-143.90;100.00;55182.69;2095854;28;20027;-64
2022/04/24 00:24:12;;;;;;;;;;;;;;;-143.90;100.00;55148.94;2097433;28;20015;-65
2022/04/24 00:25:33;;;;;;;;;;;;;;;-143.90;100.00;55135.03;2097464;28;20588;-64
2022/04/24 00:26:54;;;;;;;;;;;;;;;-143.90;100.00;55131.06;2095943;28;20027;-64
2022/04/24 00:28:15;;;;;;;;;;;;;;;-143.90;100.00;55133.06;2094510;28;19928;-62
2022/04/24 00:29:36;;;;;;;;;;;;;;;-143.90;100.00;55146.97;2095924;28;19920;-64
2022/04/24 00:30:57;;;;;;;;;;;;;;;-143.90;100.00;55154.91;2096973;28;20651;-63
2022/04/24 00:32:17;;;;;;;;;;;;;;;-143.90;100.00;55144.97;2097822;28;20421;-63
2022/04/24 00:33:38;;;;;;;;;;;;;;;-143.90;100.00;55186.69;2098539;28;20120;-63
2022/04/24 00:34:59;;;;;;;;;;;;;;;-143.90;100.00;55144.97;2096493;28;19920;-65
2022/04/24 00:36:19;;;;;;;;;;;;;;;-143.90;100.00;55166.81;2096750;28;19920;-64
2022/04/24 00:37:40;;;;;;;;;;;;;;;-143.90;100.00;55154.91;2097892;28;19924;-62
2022/04/24 00:39:01;;;;;;;;;;;;;;;-143.90;100.00;55172.78;2095778;28;19927;-63
2022/04/24 00:40:22;;;;;;;;;;;;;;;-143.90;100.00;55143.00;2094568;28;19920;-65
2022/04/24 00:41:45;;;;;;;;;;;;;;;-143.90;100.00;55160.84;2095652;28;19928;-64
2022/04/24 00:43:06;;;;;;;;;;;;;;;-143.90;100.00;55146.97;2094717;28;19927;-63
2022/04/24 00:44:47;;;;;;;;;;;;;;;-143.90;100.00;55166.81;2096525;28;19920;-64
2022/04/24 00:46:53;;;;;;;;;;;;;;;-143.90;100.00;55148.94;2096208;28;19967;-64
2022/04/24 00:48:14;;;;;;;;;;;;;;;-143.90;100.00;55166.81;2096392;28;19924;-64
2022/04/24 00:49:34;;;;;;;;;;;;;;;-143.90;100.00;55182.69;2097196;28;20043;-64
2022/04/24 00:50:55;;;;;;;;;;;;;;;-143.90;100.00;55180.72;2093377;28;20376;-65
2022/04/24 00:52:16;;;;;;;;;;;;;;;-143.90;100.00;55131.06;2095064;28;20026;-65
2022/04/24 00:53:36;;;;;;;;;;;;;;;-143.90;100.00;55143.00;2087128;28;19942;-64
2022/04/24 00:54:57;;;;;;;;;;;;;;;-143.90;100.00;55150.94;2091492;28;19927;-63
2022/04/24 00:56:18;;;;;;;;;;;;;;;-143.90;100.00;55170.78;2095116;28;19920;-64
2022/04/24 00:57:41;;;;;;;;;;;;;;;-143.90;100.00;55131.06;2095498;28;20327;-65
2022/04/24 00:59:03;;;;;;;;;;;;;;;-143.90;100.00;55186.69;2096497;28;19924;-64
2022/04/24 01:00:23;;;;;;;;;;;;;;;-143.90;100.00;55146.97;2097651;28;19967;-64
2022/04/24 01:01:45;;;;;;;;;;;;;;;-143.90;100.00;55135.03;2095997;28;19924;-64
2022/04/24 01:03:05;;;;;;;;;;;;;;;-143.90;100.00;55184.69;2095506;28;19924;-64
2022/04/24 01:04:26;;;;;;;;;;;;;;;-143.90;100.00;55135.03;2096906;28;20461;-65
2022/04/24 01:05:46;;;;;;;;;;;;;;;-143.90;100.00;55186.69;2096774;28;19920;-64
2022/04/24 01:07:07;;;;;;;;;;;;;;;-143.90;100.00;55146.97;2096217;28;20315;-64
2022/04/24 01:08:28;;;;;;;;;;;;;;;-143.90;100.00;55158.88;2097192;28;19992;-64
2022/04/24 01:09:49;;;;;;;;;;;;;;;-143.90;100.00;55178.72;2096008;28;19994;-64
2022/04/24 01:11:09;;;;;;;;;;;;;;;-143.90;100.00;55158.88;2095084;28;19924;-64
2022/04/24 01:12:30;;;;;;;;;;;;;;;-143.90;100.00;55139.03;2095984;28;20342;-64
2022/04/24 01:13:51;;;;;;;;;;;;;;;-143.90;100.00;55184.69;2096988;28;19920;-64
2022/04/24 01:15:11;;;;;;;;;;;;;;;-143.90;100.00;55099.31;2095010;28;19920;-64
2022/04/24 01:16:32;;;;;;;;;;;;;;;-143.90;100.00;55170.78;2095977;28;19924;-64
2022/04/24 01:17:53;;;;;;;;;;;;;;;-143.90;100.00;55150.94;2096173;28;20662;-64
2022/04/24 01:19:14;;;;;;;;;;;;;;;-143.90;100.00;55162.84;2093284;28;19920;-64
2022/04/24 01:20:35;;;;;;;;;;;;;;;-143.90;100.00;55121.16;2094563;28;19920;-65
2022/04/24 01:21:56;;;;;;;;;;;;;;;-143.90;100.00;55141.00;2096640;28;20338;-64
2022/04/24 01:23:16;;;;;;;;;;;;;;;-143.90;100.00;55162.84;2095471;28;19920;-65
2022/04/24 01:24:37;;;;;;;;;;;;;;;-143.90;100.00;55202.56;2091700;28;20503;-65
2022/04/24 01:25:58;;;;;;;;;;;;;;;-143.90;100.00;55164.84;2092982;28;19978;-65
2022/04/24 01:27:18;;;;;;;;;;;;;;;-143.90;100.00;55180.72;2096374;28;19920;-65
2022/04/24 01:28:39;;;;;;;;;;;;;;;-143.90;100.00;55143.00;2094051;28;20738;-64
2022/04/24 01:30:00;;;;;;;;;;;;;;;-143.90;100.00;55144.97;2095605;28;19928;-64
2022/04/24 01:31:20;;;;;;;;;;;;;;;-143.90;100.00;55135.03;2095369;28;19959;-65
2022/04/24 01:32:41;;;;;;;;;;;;;;;-143.90;100.00;55141.00;2098628;28;19921;-64
2022/04/24 01:34:01;;;;;;;;;;;;;;;-143.90;100.00;55135.03;2096445;28;19920;-65
2022/04/24 01:35:23;;;;;;;;;;;;;;;-143.90;100.00;55166.81;2096388;28;20663;-65
2022/04/24 01:36:43;;;;;;;;;;;;;;;-143.90;100.00;55170.78;2095884;28;19965;-65
2022/04/24 01:38:04;;;;;;;;;;;;;;;-143.90;100.00;55150.94;2095691;28;19921;-65
2022/04/24 01:39:26;;;;;;;;;;;;;;;-143.90;100.00;55174.75;2095829;28;19920;-65
2022/04/24 01:40:46;;;;;;;;;;;;;;;-143.90;100.00;55150.94;2087901;28;19966;-64
2022/04/24 01:42:07;;;;;;;;;;;;;;;-143.90;100.00;55192.63;2096029;28;20007;-65
2022/04/24 01:43:28;;;;;;;;;;;;;;;-143.90;100.00;55164.84;2096612;28;19928;-65
2022/04/24 01:44:49;;;;;;;;;;;;;;;-143.90;100.00;55139.03;2097590;28;20031;-64
2022/04/24 01:46:10;;;;;;;;;;;;;;;-143.90;100.00;55170.78;2090473;28;19921;-65
2022/04/24 01:47:30;;;;;;;;;;;;;;;-143.90;100.00;55146.97;2097729;28;19959;-65
2022/04/24 01:48:51;;;;;;;;;;;;;;;-143.90;100.00;55170.78;2096853;28;19994;-65
2022/04/24 01:50:12;;;;;;;;;;;;;;;-143.90;100.00;55154.91;2099968;28;20332;-66
2022/04/24 01:51:32;;;;;;;;;;;;;;;-143.90;100.00;55182.69;2098732;28;19924;-66
2022/04/24 01:52:53;;;;;;;;;;;;;;;-143.90;100.00;55172.78;2100024;28;19924;-65
2022/04/24 01:54:13;;;;;;;;;;;;;;;-143.90;100.00;55135.03;2099277;28;19920;-64
2022/04/24 01:55:34;;;;;;;;;;;;;;;-143.90;100.00;55166.81;2098383;28;20019;-65
2022/04/24 01:56:58;;;;;;;;;;;;;;;-143.90;100.00;55160.84;2097804;28;19973;-64
2022/04/24 01:58:19;;;;;;;;;;;;;;;-143.90;100.00;55158.88;2098023;28;19921;-64
2022/04/24 01:59:40;;;;;;;;;;;;;;;-143.90;100.00;55166.81;2098374;28;19920;-65
2022/04/24 02:01:01;;;;;;;;;;;;;;;-143.90;100.00;55150.94;2100131;28;19935;-65
2022/04/24 02:02:22;;;;;;;;;;;;;;;-143.90;100.00;55168.81;2099590;28;19928;-65
2022/04/24 02:03:42;;;;;;;;;;;;;;;-143.90;100.00;55170.78;2099496;28;19967;-64
2022/04/24 02:05:03;;;;;;;;;;;;;;;-143.90;100.00;55139.03;2098362;28;19920;-65
2022/04/24 02:06:24;;;;;;;;;;;;;;;-143.90;100.00;55158.88;2099919;28;20445;-64
2022/04/24 02:07:45;;;;;;;;;;;;;;;-143.90;100.00;55150.94;2099940;28;20617;-64
2022/04/24 02:09:06;;;;;;;;;;;;;;;-143.90;100.00;55170.78;2100250;28;19920;-66
2022/04/24 02:10:27;;;;;;;;;;;;;;;-143.90;100.00;55150.94;2098663;28;19919;-65
2022/04/24 02:11:47;;;;;;;;;;;;;;;-143.90;100.00;55154.91;2097405;28;21506;-65
2022/04/24 02:13:08;;;;;;;;;;;;;;;-143.90;100.00;55148.94;2098669;28;20304;-65
2022/04/24 02:14:28;;;;;;;;;;;;;;;-143.90;100.00;55190.66;2098441;28;19920;-64
2022/04/24 02:15:50;;;;;;;;;;;;;;;-143.90;100.00;55143.00;2099702;28;19920;-64
2022/04/24 02:17:10;;;;;;;;;;;;;;;-143.90;100.00;55150.94;2097673;28;20376;-66
2022/04/24 02:18:31;;;;;;;;;;;;;;;-143.90;100.00;55166.81;2097845;28;19927;-65
2022/04/24 02:19:52;;;;;;;;;;;;;;;-143.90;100.00;55162.84;2097324;28;19923;-65
2022/04/24 02:21:13;;;;;;;;;;;;;;;-143.90;100.00;55158.88;2098414;28;19924;-66
2022/04/24 02:22:34;;;;;;;;;;;;;;;-143.90;100.00;55146.97;2099004;28;20813;-66
2022/04/24 02:23:55;;;;;;;;;;;;;;;-143.90;100.00;55146.97;2101125;28;19985;-65
2022/04/24 02:25:17;;;;;;;;;;;;;;;-143.90;100.00;55166.81;2097952;28;19927;-65
2022/04/24 02:26:38;;;;;;;;;;;;;;;-143.90;100.00;55162.84;2096571;28;20457;-65
2022/04/24 02:27:58;;;;;;;;;;;;;;;-143.90;100.00;55146.97;2099296;28;19920;-66
2022/04/24 02:29:19;;;;;;;;;;;;;;;-143.90;100.00;55158.88;2096576;28;20054;-64
2022/04/24 02:30:40;;;;;;;;;;;;;;;-143.90;100.00;55168.81;2096335;28;19982;-65
2022/04/24 02:32:01;;;;;;;;;;;;;;;-143.90;100.00;55143.00;2098675;28;19932;-64
2022/04/24 02:33:22;;;;;;;;;;;;;;;-143.90;100.00;55172.78;2097578;28;20396;-66
2022/04/24 02:34:42;;;;;;;;;;;;;;;-143.90;100.00;55143.00;2099430;28;20482;-65
2022/04/24 02:36:03;;;;;;;;;;;;;;;-143.90;100.00;55158.88;2098491;28;19920;-65
2022/04/24 02:37:25;;;;;;;;;;;;;;;-143.90;100.00;55139.03;2098360;28;20287;-65
2022/04/24 02:38:46;;;;;;;;;;;;;;;-143.90;100.00;55178.72;2099176;28;20847;-64
2022/04/24 02:40:10;;;;;;;;;;;;;;;-143.90;100.00;55135.03;2100274;28;20405;-64
2022/04/24 02:41:31;;;;;;;;;;;;;;;-143.90;100.00;55131.06;2098209;28;19930;-65
2022/04/24 02:42:52;;;;;;;;;;;;;;;-143.90;100.00;55186.69;2098193;28;19950;-65
2022/04/24 02:44:13;;;;;;;;;;;;;;;-143.90;100.00;55190.66;2096399;28;19928;-65
2022/04/24 02:45:33;;;;;;;;;;;;;;;-143.90;100.00;55168.81;2097994;28;19920;-66
2022/04/24 02:46:54;;;;;;;;;;;;;;;-143.90;100.00;55150.94;2099235;28;19924;-64
2022/04/24 02:48:15;;;;;;;;;;;;;;;-143.90;100.00;55127.09;2098976;28;19920;-64
2022/04/24 02:49:35;;;;;;;;;;;;;;;-143.90;100.00;55131.06;2099142;28;20001;-65
2022/04/24 02:50:57;;;;;;;;;;;;;;;-143.90;100.00;55143.00;2097945;28;19970;-64
2022/04/24 02:52:18;;;;;;;;;;;;;;;-143.90;100.00;55158.88;2093808;28;19928;-65
2022/04/24 02:53:39;;;;;;;;;;;;;;;-143.90;100.00;55154.91;2089433;28;19924;-66
2022/04/24 02:55:00;;;;;;;;;;;;;;;-143.90;100.00;55166.81;2094096;28;19970;-65
2022/04/24 02:56:21;;;;;;;;;;;;;;;-143.90;100.00;55160.84;2098011;28;19920;-65
2022/04/24 02:57:42;;;;;;;;;;;;;;;-143.90;100.00;55148.94;2098421;28;19916;-65
2022/04/24 02:59:03;;;;;;;;;;;;;;;-143.90;100.00;55150.94;2088936;28;19985;-64
2022/04/24 03:00:27;;;;;;;;;;;;;;;-143.90;100.00;55131.06;2093924;28;19921;-65
2022/04/24 03:01:49;;;;;;;;;;;;;;;-143.90;100.00;55135.03;2099221;28;19931;-64
2022/04/24 03:03:10;;;;;;;;;;;;;;;-143.90;100.00;55182.69;2097374;28;19921;-66
2022/04/24 03:04:31;;;;;;;;;;;;;;;-143.90;100.00;55186.69;2099233;28;20367;-65
2022/04/24 03:05:51;;;;;;;;;;;;;;;-143.90;100.00;55123.13;2088920;28;20002;-66
2022/04/24 03:07:12;;;;;;;;;;;;;;;-143.90;100.00;55154.91;2096142;28;20027;-65
2022/04/24 03:08:33;;;;;;;;;;;;;;;-143.90;100.00;55170.78;2096855;28;19966;-65
2022/04/24 03:09:54;;;;;;;;;;;;;;;-143.90;100.00;55107.25;2097828;28;19920;-65
2022/04/24 03:11:14;;;;;;;;;;;;;;;-143.90;100.00;55139.03;2095703;28;20009;-65
2022/04/24 03:12:35;;;;;;;;;;;;;;;-143.90;100.00;55178.72;2097828;28;19925;-65
2022/04/24 03:13:56;;;;;;;;;;;;;;;-143.90;100.00;55162.84;2097295;28;19928;-66
2022/04/24 03:15:17;;;;;;;;;;;;;;;-143.90;100.00;55129.09;2098944;28;19920;-64
2022/04/24 03:16:38;;;;;;;;;;;;;;;-143.90;100.00;55174.75;2098398;28;20014;-66
2022/04/24 03:17:58;;;;;;;;;;;;;;;-143.90;100.00;55164.84;2097160;28;19920;-66
2022/04/24 03:19:19;;;;;;;;;;;;;;;-143.90;100.00;55174.75;2098293;28;19921;-65
2022/04/24 03:20:40;;;;;;;;;;;;;;;-143.90;100.00;55127.09;2097707;28;19920;-65
2022/04/24 03:22:00;;;;;;;;;;;;;;;-143.90;100.00;55150.94;2098417;28;19924;-65
2022/04/24 03:23:21;;;;;;;;;;;;;;;-143.90;100.00;55150.94;2098343;28;20415;-65
2022/04/24 03:24:41;;;;;;;;;;;;;;;-143.90;100.00;55204.53;2096696;28;20760;-65
2022/04/24 03:26:02;;;;;;;;;;;;;;;-143.90;100.00;55162.84;2096531;28;20047;-65
2022/04/24 03:27:23;;;;;;;;;;;;;;;-143.90;100.00;55150.94;2097210;28;19927;-66
2022/04/24 03:28:44;;;;;;;;;;;;;;;-143.90;100.00;55180.72;2097804;28;19931;-65
2022/04/24 03:30:06;;;;;;;;;;;;;;;-143.90;100.00;55148.94;2098489;28;19920;-66
2022/04/24 03:31:26;;;;;;;;;;;;;;;-143.90;100.00;55178.72;2096478;28;20400;-65
2022/04/24 03:32:47;;;;;;;;;;;;;;;-143.90;100.00;55158.88;2097571;28;20535;-65
2022/04/24 03:34:07;;;;;;;;;;;;;;;-143.90;100.00;55182.69;2097292;28;20302;-65
2022/04/24 03:35:28;;;;;;;;;;;;;;;-143.90;100.00;55141.00;2093931;28;19970;-65
2022/04/24 03:36:49;;;;;;;;;;;;;;;-143.90;100.00;55107.25;2095674;28;19959;-65
2022/04/24 03:38:09;;;;;;;;;;;;;;;-143.90;100.00;55166.81;2098811;28;19920;-64
2022/04/24 03:39:30;;;;;;;;;;;;;;;-143.90;100.00;55172.78;2095682;28;20437;-65
2022/04/24 03:40:51;;;;;;;;;;;;;;;-143.90;100.00;55182.69;2095625;28;20066;-63
2022/04/24 03:42:12;;;;;;;;;;;;;;;-143.90;100.00;55166.81;2088996;28;21191;-65
2022/04/24 03:43:32;;;;;;;;;;;;;;;-143.90;100.00;55154.91;2094696;28;20007;-65
2022/04/24 03:44:56;;;;;;;;;;;;;;;-143.90;100.00;55194.63;2097238;28;20029;-65
2022/04/24 03:46:17;;;;;;;;;;;;;;;-143.90;100.00;55139.03;2097462;28;19920;-64
2022/04/24 03:47:38;;;;;;;;;;;;;;;-143.90;100.00;55170.78;2097120;28;19942;-66
2022/04/24 03:48:59;;;;;;;;;;;;;;;-143.90;100.00;55143.00;2098267;28;19976;-64
2022/04/24 03:50:19;;;;;;;;;;;;;;;-143.90;100.00;55174.75;2096649;28;20388;-66
2022/04/24 03:51:40;;;;;;;;;;;;;;;-143.90;100.00;55158.88;2097372;28;19924;-64
2022/04/24 03:53:01;;;;;;;;;;;;;;;-143.90;100.00;55164.84;2096694;28;20632;-65
2022/04/24 03:54:21;;;;;;;;;;;;;;;-143.90;100.00;55162.84;2100797;28;19927;-65
2022/04/24 03:55:42;;;;;;;;;;;;;;;-143.90;100.00;55135.03;2097101;28;19986;-64
2022/04/24 03:57:03;;;;;;;;;;;;;;;-143.90;100.00;55150.94;2098678;28;20494;-65
2022/04/24 03:58:23;;;;;;;;;;;;;;;-143.90;100.00;55131.06;2095433;28;19920;-65
2022/04/24 03:59:44;;;;;;;;;;;;;;;-143.90;100.00;55131.06;2096605;28;19921;-65
2022/04/24 04:01:05;;;;;;;;;;;;;;;-143.90;100.00;55176.75;2098040;28;19942;-65
2022/04/24 04:02:26;;;;;;;;;;;;;;;-143.90;100.00;55162.84;2099357;28;20007;-66
2022/04/24 04:03:46;;;;;;;;;;;;;;;-143.90;100.00;55162.84;2096511;28;19928;-65
2022/04/24 04:05:08;;;;;;;;;;;;;;;-143.90;100.00;55186.69;2087786;28;20437;-65
2022/04/24 04:06:28;;;;;;;;;;;;;;;-143.90;100.00;55144.97;2095423;28;19920;-65
2022/04/24 04:07:49;;;;;;;;;;;;;;;-143.90;100.00;55158.88;2097380;28;19928;-64
2022/04/24 04:09:10;;;;;;;;;;;;;;;-143.90;100.00;55139.03;2098270;28;19920;-64
2022/04/24 04:10:31;;;;;;;;;;;;;;;-143.90;100.00;55127.09;2097488;28;19927;-65
2022/04/24 04:11:51;;;;;;;;;;;;;;;-143.90;100.00;55166.81;2096920;28;19927;-64
2022/04/24 04:13:13;;;;;;;;;;;;;;;-143.90;100.00;55162.84;2098498;28;19927;-63
2022/04/24 04:14:34;;;;;;;;;;;;;;;-143.90;100.00;55174.75;2099139;28;20369;-64
2022/04/24 04:15:54;;;;;;;;;;;;;;;-143.90;100.00;55135.03;2096318;28;20390;-64
2022/04/24 04:17:15;;;;;;;;;;;;;;;-143.90;100.00;55162.84;2098143;28;19990;-64
2022/04/24 04:18:36;;;;;;;;;;;;;;;-143.90;100.00;55119.16;2098037;28;20404;-65
2022/04/24 04:19:57;;;;;;;;;;;;;;;-143.90;100.00;55146.97;2096482;28;20314;-65
2022/04/24 04:21:17;;;;;;;;;;;;;;;-143.90;100.00;55170.78;2095472;28;19970;-65
2022/04/24 04:22:51;;;;;;;;;;;;;;;-143.90;100.00;55156.88;2087727;28;20273;-65
2022/04/24 04:24:12;;;;;;;;;;;;;;;-143.90;100.00;55143.00;2097718;28;19920;-66
2022/04/24 04:25:33;;;;;;;;;;;;;;;-143.90;100.00;55158.88;2097410;28;19931;-65
2022/04/24 04:26:54;;;;;;;;;;;;;;;-143.90;100.00;55154.91;2097226;28;19998;-65
2022/04/24 04:28:14;;;;;;;;;;;;;;;-143.90;100.00;55131.06;2087701;28;19983;-65
2022/04/24 04:29:35;;;;;;;;;;;;;;;-143.90;100.00;55166.81;2093367;28;19924;-65
2022/04/24 04:30:56;;;;;;;;;;;;;;;-143.90;100.00;55143.00;2096843;28;19932;-65
2022/04/24 04:32:16;;;;;;;;;;;;;;;-143.90;100.00;55150.94;2097525;28;19924;-65
2022/04/24 04:33:37;;;;;;;;;;;;;;;-143.90;100.00;55150.94;2097017;28;19923;-65
2022/04/24 04:34:58;;;;;;;;;;;;;;;-143.90;100.00;55133.06;2096446;28;19928;-64
2022/04/24 04:36:19;;;;;;;;;;;;;;;-143.90;100.00;55172.78;2097501;28;19931;-65
2022/04/24 04:37:40;;;;;;;;;;;;;;;-143.90;100.00;55103.28;2097520;28;19926;-66
2022/04/24 04:39:00;;;;;;;;;;;;;;;-143.90;100.00;55178.72;2097052;28;19919;-64
2022/04/24 04:40:21;;;;;;;;;;;;;;;-143.90;100.00;55123.13;2097138;28;19920;-66
2022/04/24 04:41:42;;;;;;;;;;;;;;;-143.90;100.00;55166.81;2096950;28;19919;-65
2022/04/24 04:43:02;;;;;;;;;;;;;;;-143.90;100.00;55158.88;2096534;28;19924;-65
2022/04/24 04:44:23;;;;;;;;;;;;;;;-143.90;100.00;55162.84;2097141;28;20384;-65
2022/04/24 04:45:43;;;;;;;;;;;;;;;-143.90;100.00;55162.84;2096168;28;20007;-65
2022/04/24 04:47:04;;;;;;;;;;;;;;;-143.90;100.00;55143.00;2098199;28;19924;-65
2022/04/24 04:48:26;;;;;;;;;;;;;;;-143.90;100.00;55135.03;2090890;28;19921;-65
2022/04/24 04:49:47;;;;;;;;;;;;;;;-143.90;100.00;55174.75;2093904;28;19924;-65
2022/04/24 04:51:07;;;;;;;;;;;;;;;-143.90;100.00;55170.78;2098274;28;19920;-65
2022/04/24 04:52:28;;;;;;;;;;;;;;;-143.90;100.00;55150.94;2096496;28;19921;-66
2022/04/24 04:53:51;;;;;;;;;;;;;;;-143.90;100.00;55150.94;2087986;28;19920;-63
2022/04/24 04:55:12;;;;;;;;;;;;;;;-143.90;100.00;55166.81;2092018;28;19934;-65
2022/04/24 04:56:33;;;;;;;;;;;;;;;-143.90;100.00;55111.22;2095900;28;20407;-65
2022/04/24 04:57:54;;;;;;;;;;;;;;;-143.90;100.00;55131.06;2088479;28;20038;-65
2022/04/24 04:59:15;;;;;;;;;;;;;;;-143.90;100.00;55180.72;2093843;28;20010;-65
2022/04/24 05:00:36;;;;;;;;;;;;;;;-143.90;100.00;55158.88;2096854;28;20364;-66
2022/04/24 05:01:56;;;;;;;;;;;;;;;-143.90;100.00;55131.06;2090929;28;19939;-66
2022/04/24 05:03:17;;;;;;;;;;;;;;;-143.90;100.00;55158.88;2096552;28;19927;-64
2022/04/24 05:04:38;;;;;;;;;;;;;;;-143.90;100.00;55127.09;2096773;28;20004;-64
2022/04/24 05:05:59;;;;;;;;;;;;;;;-143.90;100.00;55097.31;2096474;28;20622;-66
2022/04/24 05:07:20;;;;;;;;;;;;;;;-143.90;100.00;55158.88;2094684;28;19947;-64
2022/04/24 05:08:40;;;;;;;;;;;;;;;-143.90;100.00;55143.00;2096531;28;19928;-65
2022/04/24 05:10:02;;;;;;;;;;;;;;;-143.90;100.00;55119.16;2096483;28;20057;-65
2022/04/24 05:11:22;;;;;;;;;;;;;;;-143.90;100.00;55146.97;2097111;28;19990;-65
2022/04/24 05:12:43;;;;;;;;;;;;;;;-143.90;100.00;55127.09;2095649;28;19925;-65
2022/04/24 05:14:04;;;;;;;;;;;;;;;-143.90;100.00;55121.16;2088836;28;20037;-64
2022/04/24 05:15:25;;;;;;;;;;;;;;;-143.90;100.00;55103.28;2093664;28;20446;-65
2022/04/24 05:16:46;;;;;;;;;;;;;;;-143.90;100.00;55131.06;2097237;28;19943;-66
2022/04/24 05:18:07;;;;;;;;;;;;;;;-143.90;100.00;55143.00;2097437;28;19920;-66
2022/04/24 05:19:27;;;;;;;;;;;;;;;-143.90;100.00;55146.97;2095946;28;19928;-66
2022/04/24 05:20:49;;;;;;;;;;;;;;;-143.90;100.00;55107.25;2096255;28;19959;-65
2022/04/24 05:22:09;;;;;;;;;;;;;;;-143.90;100.00;55115.19;2096035;28;19924;-65
2022/04/24 05:23:30;;;;;;;;;;;;;;;-143.90;100.00;55131.06;2095288;28;19927;-65
2022/04/24 05:24:51;;;;;;;;;;;;;;;-143.90;100.00;55164.84;2096368;28;20440;-65
2022/04/24 05:26:12;;;;;;;;;;;;;;;-143.90;100.00;55117.19;2094937;28;20467;-65
2022/04/24 05:27:33;;;;;;;;;;;;;;;-143.90;100.00;55115.19;2096246;28;19928;-66
2022/04/24 05:28:53;;;;;;;;;;;;;;;-143.90;100.00;55154.91;2097047;28;19928;-65
2022/04/24 05:30:14;;;;;;;;;;;;;;;-143.90;100.00;55135.03;2089239;28;19988;-65
2022/04/24 05:31:35;;;;;;;;;;;;;;;-143.90;100.00;55123.13;2088169;28;19931;-65
2022/04/24 05:32:55;;;;;;;;;;;;;;;-143.90;100.00;55127.09;2095472;28;19920;-63
2022/04/24 05:34:16;;;;;;;;;;;;;;;-143.90;100.00;55103.28;2095397;28;20265;-64
2022/04/24 05:35:37;;;;;;;;;;;;;;;-143.90;100.00;55099.31;2096508;28;20044;-64
2022/04/24 05:36:58;;;;;;;;;;;;;;;-143.90;100.00;55146.97;2097141;28;19920;-64
2022/04/24 05:38:19;;;;;;;;;;;;;;;-143.90;99.41;55127.09;2097331;28;19927;-63
2022/04/24 05:39:39;;;;;;;;;;;;;;;-143.90;98.57;55146.97;2096567;28;19920;-63
2022/04/24 05:41:00;;;;;;;;;;;;;;;-143.90;98.69;55143.00;2094395;28;20388;-64
2022/04/24 05:42:20;;;;;;;;;;;;;;;-143.90;97.13;55103.28;2095306;28;19936;-64
2022/04/24 05:43:41;;;;;;;;;;;;;;;-143.90;98.51;55123.13;2095476;28;19927;-64
2022/04/24 05:45:04;;;;;;;;;;;;;;;-143.90;97.89;55131.06;2096933;28;19920;-64
2022/04/24 05:46:25;;;;;;;;;;;;;;;-143.90;96.04;55091.38;2095158;28;20988;-63
2022/04/24 05:47:46;;;;;;;;;;;;;;;-143.90;94.96;55111.22;2097363;28;20296;-64
2022/04/24 05:49:06;;;;;;;;;;;;;;;-143.90;95.03;55143.00;2093319;28;19920;-64
2022/04/24 05:50:27;;;;;;;;;;;;;;;-143.90;94.03;55109.22;2095082;28;20027;-64
2022/04/24 05:51:48;;;;;;;;;;;;;;;-143.90;92.87;55115.19;2095209;28;20398;-64
2022/04/24 05:53:09;;;;;;;;;;;;;;;-143.90;92.83;55135.03;2087818;28;19927;-64
2022/04/24 05:54:30;;;;;;;;;;;;;;;-143.90;89.87;55111.22;2092930;28;19920;-64
2022/04/24 05:55:51;;;;;;;;;;;;;;;-143.90;88.48;55111.22;2097621;28;19928;-63
2022/04/24 05:57:12;;;;;;;;;;;;;;;-143.90;87.04;55101.28;2097549;28;19989;-64
2022/04/24 05:58:32;;;;;;;;;;;;;;;-143.90;86.91;55115.19;2094689;28;19993;-63
2022/04/24 05:59:53;;;;;;;;;;;;;;;-143.90;85.50;55158.88;2095924;28;19954;-64
2022/04/24 06:01:14;;;;;;;;;;;;;;;-143.90;84.65;55075.47;2097398;28;20401;-63
2022/04/24 06:02:35;;;;;;;;;;;;;;;-143.90;85.37;55111.22;2094517;28;19924;-63
2022/04/24 06:03:55;;;;;;;;;;;;;;;-143.90;83.96;55127.09;2097318;28;20039;-64
2022/04/24 06:05:16;;;;;;;;;;;;;;;-143.90;83.98;55111.22;2095669;28;19928;-64
2022/04/24 06:06:37;;;;;;;;;;;;;;;-143.90;82.43;55111.22;2094170;28;20014;-65
2022/04/24 06:07:57;;;;;;;;;;;;;;;-143.90;80.08;55119.16;2094823;28;20006;-64
2022/04/24 06:09:19;;;;;;;;;;;;;;;-143.90;79.71;55091.38;2095053;28;19931;-64
2022/04/24 06:10:41;;;;;;;;;;;;;;;-143.90;79.80;55099.31;2096173;28;19970;-64
2022/04/24 06:12:02;;;;;;;;;;;;;;;-143.90;80.51;55099.31;2096172;28;20498;-64
2022/04/24 06:13:23;;;;;;;;;;;;;;;-143.90;80.72;55119.16;2095795;28;19924;-64
2022/04/24 06:14:43;;;;;;;;;;;;;;;-143.90;79.52;55087.41;2096069;28;19920;-64
2022/04/24 06:16:04;;;;;;;;;;;;;;;-143.90;78.68;55129.09;2097152;28;19927;-64
2022/04/24 06:17:25;;;;;;;;;;;;;;;-143.90;78.74;55077.47;2096558;28;19927;-65
2022/04/24 06:18:46;;;;;;;;;;;;;;;-143.90;77.59;55103.28;2095502;28;19924;-64
2022/04/24 06:20:07;;;;;;;;;;;;;;;-143.90;78.12;55119.16;2096937;28;19920;-64
2022/04/24 06:21:27;;;;;;;;;;;;;;;-143.90;77.23;55150.94;2096988;28;19924;-65
2022/04/24 06:22:49;;;;;;;;;;;;;;;-143.90;77.38;55071.50;2095510;28;19924;-65
2022/04/24 06:24:10;;;;;;;;;;;;;;;-143.90;76.87;55119.16;2096130;28;19956;-63
2022/04/24 06:25:31;;;;;;;;;;;;;;;-143.90;75.06;55073.50;2096786;28;20018;-64
2022/04/24 06:26:52;;;;;;;;;;;;;;;-143.90;73.13;55051.66;2096606;28;19945;-64
2022/04/24 06:28:13;;;;;;;;;;;;;;;-143.90;72.33;55095.34;2095877;28;20014;-65
2022/04/24 06:29:34;;;;;;;;;;;;;;;-143.90;72.28;55091.38;2097015;28;20380;-63
2022/04/24 06:30:54;;;;;;;;;;;;;;;-143.90;70.52;55067.53;2097304;28;19924;-66
2022/04/24 06:32:15;;;;;;;;;;;;;;;-143.90;72.59;55079.44;2099734;28;19920;-66
2022/04/24 06:33:36;;;;;;;;;;;;;;;-143.90;72.04;55099.31;2098994;28;20036;-66
2022/04/24 06:34:56;;;;;;;;;;;;;;;-143.90;70.35;55071.50;2099109;28;19942;-65
2022/04/24 06:36:17;;;;;;;;;;;;;;;-143.90;69.98;55067.53;2098415;28;20032;-66
2022/04/24 06:37:39;;;;;;;;;;;;;;;-143.90;69.88;55043.72;2089897;28;19928;-67
2022/04/24 06:39:02;;;;;;;;;;;;;;;-143.90;71.61;55107.25;2094238;28;19966;-67
2022/04/24 06:40:24;;;;;;;;;;;;;;;-143.90;70.64;55087.41;2098316;28;19925;-67
2022/04/24 06:41:44;;;;;;;;;;;;;;;-143.90;70.75;55083.41;2100095;28;19923;-66
2022/04/24 06:43:15;;;;;;;;;;;;;;;-143.90;71.37;55079.44;2097696;28;19924;-66
2022/04/24 06:44:35;;;;;;;;;;;;;;;-143.90;71.49;55071.50;2097142;28;20030;-66
2022/04/24 06:45:56;;;;;;;;;;;;;;;-143.90;70.48;55065.56;2097478;28;20391;-66
2022/04/24 06:47:17;;;;;;;;;;;;;;;-143.90;70.50;55087.41;2097471;28;19924;-66